CheckWX is a tool to help pilots better visualize weather data.  It is not intended as a substitute for an official pre-flight weather briefing.

06:39:40 UTC

PADE METAR
Deering Airport
Deering, Alaska, USA
Current

2 hours ago

PADE 260453Z AUTO 01010KT 10SM CLR 17/13 A3016 RMK AO2 SLP213 T01720128 TSNO
Observed
Jun-26 @ 04:53 UTC
Wind
  • 010° at 10 KTS
Visibility
10 SM
Flight Rules
VFR
Cloud Levels
  • Clear skies
Temperature
17°C / 63°F
Dewpoint
13°C / 55°F
Humidity
77%
Altimeter
30.16" Hg
Pressure
1021.32 hPa
Previous

4 hours ago

PADE 260253Z AUTO 01010KT 10SM CLR 18/12 A3017 RMK AO2 SLP216 T01780117 51017 TSNO
Observed
Jun-26 @ 02:53 UTC
Wind
  • 010° at 10 KTS
Visibility
10 SM
Flight Rules
VFR
Cloud Levels
  • Clear skies
Temperature
18°C / 64°F
Dewpoint
12°C / 54°F
Humidity
68%
Altimeter
30.17" Hg
Pressure
1021.72 hPa
Previous

5 hours ago

PADE 260153Z AUTO 02012KT 10SM CLR 17/11 A3016 RMK AO2 SLP212 T01720106 TSNO
Observed
Jun-26 @ 01:53 UTC
Wind
  • 020° at 12 KTS
Visibility
10 SM
Flight Rules
VFR
Cloud Levels
  • Clear skies
Temperature
17°C / 63°F
Dewpoint
11°C / 52°F
Humidity
68%
Altimeter
30.16" Hg
Pressure
1021.32 hPa